createdAt,value
2022-08-26T00:01:51.676Z,64.41
2022-08-26T00:04:17.803Z,64.98
2022-08-26T00:06:46.252Z,64.75
2022-08-26T00:09:12.450Z,64.75
2022-08-26T00:11:38.399Z,65.71
2022-08-26T00:14:04.397Z,66.53
2022-08-26T00:16:31.081Z,67.44
2022-08-26T00:18:57.042Z,66.46
2022-08-26T00:21:23.094Z,66.11
2022-08-26T00:23:49.381Z,66.04
2022-08-26T00:26:16.273Z,66.18
2022-08-26T00:28:42.324Z,66.31
2022-08-26T00:31:11.025Z,65.82
2022-08-26T00:33:37.270Z,66.19
2022-08-26T00:36:03.274Z,65.88
2022-08-26T00:38:30.299Z,65.77
2022-08-26T00:40:56.654Z,66.69
2022-08-26T00:43:22.649Z,66.61
2022-08-26T00:45:49.419Z,66.43
2022-08-26T00:48:15.382Z,65.93
2022-08-26T00:50:41.845Z,65.65
2022-08-26T00:53:07.979Z,65.85
2022-08-26T00:55:38.133Z,65.54
2022-08-26T00:58:04.405Z,65.81
2022-08-26T01:00:30.337Z,66.28
2022-08-26T01:02:57.854Z,66.30
2022-08-26T01:05:23.834Z,66.86
2022-08-26T01:07:49.888Z,66.61
2022-08-26T01:10:16.609Z,66.46
2022-08-26T01:12:42.687Z,66.23
2022-08-26T01:15:08.686Z,66.17
2022-08-26T01:17:36.042Z,66.45
2022-08-26T01:20:02.060Z,66.52
2022-08-26T01:22:29.009Z,66.14
2022-08-26T01:24:54.967Z,67.03
2022-08-26T01:27:21.884Z,66.68
2022-08-26T01:29:49.303Z,66.40
2022-08-26T01:32:15.243Z,66.48
2022-08-26T01:34:41.238Z,66.43
2022-08-26T01:37:07.635Z,67.03
2022-08-26T01:39:33.713Z,67.72
2022-08-26T01:42:02.950Z,67.23
2022-08-26T01:44:29.283Z,66.51
2022-08-26T01:46:55.885Z,66.52
2022-08-26T01:49:21.874Z,67.46
2022-08-26T01:51:49.176Z,67.05
2022-08-26T01:54:15.250Z,67.01
2022-08-26T01:56:41.765Z,67.31
2022-08-26T01:59:07.827Z,67.43
2022-08-26T02:01:35.415Z,67.01
2022-08-26T02:04:01.446Z,67.25
2022-08-26T02:06:27.426Z,67.54
2022-08-26T02:08:53.373Z,66.75
2022-08-26T02:11:19.383Z,67.33
2022-08-26T02:13:45.354Z,67.97
2022-08-26T02:16:11.374Z,67.47
2022-08-26T02:18:37.430Z,67.14
2022-08-26T02:21:03.392Z,67.48
2022-08-26T02:23:32.989Z,67.44
2022-08-26T02:26:00.265Z,66.35
2022-08-26T02:28:28.044Z,66.22
2022-08-26T02:30:55.638Z,66.66
2022-08-26T02:33:21.817Z,66.62
2022-08-26T02:35:48.926Z,67.33
2022-08-26T02:38:14.867Z,66.77
2022-08-26T02:40:41.082Z,66.55
2022-08-26T02:43:08.579Z,66.37
2022-08-26T02:45:35.520Z,67.14
2022-08-26T02:48:01.577Z,66.90
2022-08-26T02:50:27.661Z,66.53
2022-08-26T02:52:53.595Z,66.35
2022-08-26T02:55:19.581Z,66.63
2022-08-26T02:57:45.526Z,66.21
2022-08-26T03:00:12.204Z,66.50
2022-08-26T03:02:38.190Z,66.20
2022-08-26T03:05:04.204Z,65.69
2022-08-26T03:07:30.173Z,65.97
2022-08-26T03:09:57.064Z,66.11
2022-08-26T03:12:23.696Z,66.13
2022-08-26T03:14:51.607Z,66.24
2022-08-26T03:17:19.059Z,66.46
2022-08-26T03:19:45.045Z,67.48
2022-08-26T03:22:11.367Z,66.84
2022-08-26T03:24:40.874Z,67.05
2022-08-26T03:27:11.844Z,66.82
2022-08-26T03:29:38.149Z,66.58
2022-08-26T03:32:05.367Z,66.50
2022-08-26T03:34:32.930Z,67.03
2022-08-26T03:39:41.060Z,66.77
2022-08-26T05:47:17.848Z,62.91
2022-08-26T05:49:51.552Z,62.84
2022-08-26T05:52:18.806Z,61.91
2022-08-26T05:54:44.844Z,61.47
2022-08-26T05:57:13.672Z,61.92
2022-08-26T05:59:40.581Z,61.23
2022-08-26T06:02:07.948Z,60.86
2022-08-26T06:04:33.905Z,60.55
2022-08-26T06:06:59.923Z,60.26
2022-08-26T06:09:26.814Z,60.08
2022-08-26T06:11:52.802Z,59.81
2022-08-26T06:14:19.668Z,59.88
2022-08-26T06:16:46.358Z,59.42
2022-08-26T06:19:12.288Z,59.20
2022-08-26T06:21:39.240Z,59.01
2022-08-26T06:24:05.273Z,58.72
2022-08-26T06:26:31.218Z,58.30
2022-08-26T06:28:58.163Z,57.65
2022-08-26T06:31:24.254Z,57.63
2022-08-26T06:33:50.319Z,57.67
2022-08-26T06:36:17.201Z,56.81
2022-08-26T06:38:44.659Z,56.93
2022-08-26T06:41:10.594Z,57.43
2022-08-26T06:43:37.541Z,57.55
2022-08-26T06:46:04.759Z,57.03
2022-08-26T06:48:30.957Z,56.71
2022-08-26T06:50:57.894Z,57.42
2022-08-26T06:53:24.321Z,56.51
2022-08-26T06:55:51.879Z,56.49
2022-08-26T06:58:18.009Z,56.71
2022-08-26T07:00:47.393Z,56.14
2022-08-26T07:03:13.707Z,56.10
2022-08-26T07:05:39.763Z,55.68
2022-08-26T07:08:05.706Z,55.70
2022-08-26T07:10:32.420Z,55.25
2022-08-26T07:12:58.448Z,54.91
2022-08-26T07:15:31.077Z,54.96
2022-08-26T07:17:58.348Z,54.35
2022-08-26T07:20:24.419Z,54.21
2022-08-26T07:22:50.947Z,53.95
2022-08-26T07:25:16.891Z,53.48
2022-08-26T07:27:46.080Z,53.03
2022-08-26T07:30:19.874Z,53.61
2022-08-26T07:32:45.889Z,52.53
2022-08-26T07:35:12.611Z,52.77
2022-08-26T07:37:39.206Z,52.61
2022-08-26T07:40:05.423Z,53.44
2022-08-26T07:42:32.154Z,53.39
2022-08-26T07:44:58.095Z,53.89
2022-08-26T07:47:25.595Z,53.21
2022-08-26T07:49:52.670Z,52.06
2022-08-26T07:52:21.640Z,52.64
2022-08-26T07:54:50.074Z,51.40
2022-08-26T07:57:16.048Z,50.35
2022-08-26T07:59:45.066Z,51.24
2022-08-26T08:02:11.924Z,50.72
2022-08-26T08:04:37.921Z,50.79
2022-08-26T08:07:04.469Z,50.84
2022-08-26T08:09:33.558Z,50.38
2022-08-26T08:11:59.515Z,50.67
2022-08-26T08:14:26.633Z,50.09
2022-08-26T08:16:54.702Z,48.83
2022-08-26T08:19:21.855Z,49.32
2022-08-26T08:21:47.860Z,49.67
2022-08-26T08:24:13.902Z,49.41
2022-08-26T08:26:39.865Z,48.99
2022-08-26T08:29:05.842Z,47.41
2022-08-26T08:31:55.825Z,48.38
2022-08-26T08:34:18.175Z,46.81
2022-08-26T08:36:44.341Z,46.63
2022-08-26T08:39:10.343Z,46.66
2022-08-26T08:41:36.293Z,46.21
2022-08-26T08:44:02.303Z,46.19
2022-08-26T08:46:28.301Z,45.20
2022-08-26T08:48:55.074Z,44.22
2022-08-26T08:51:22.487Z,44.45
2022-08-26T08:53:48.436Z,45.11
2022-08-26T08:56:15.104Z,43.94
2022-08-26T08:58:41.153Z,44.22
2022-08-26T09:01:07.146Z,44.72
2022-08-26T09:03:36.107Z,43.97
2022-08-26T09:06:03.834Z,43.69
2022-08-26T09:08:30.172Z,43.50
2022-08-26T09:10:56.466Z,44.21
2022-08-26T09:13:27.110Z,43.13
2022-08-26T09:15:53.714Z,43.01
2022-08-26T09:18:20.385Z,42.56
2022-08-26T11:40:19.498Z,34.89
2022-08-26T11:42:45.534Z,34.69
2022-08-26T11:45:12.340Z,34.99
2022-08-26T11:47:39.033Z,35.00
2022-08-26T11:50:05.258Z,34.49
2022-08-26T11:52:32.456Z,32.92
2022-08-26T11:54:58.592Z,33.02
2022-08-26T11:57:25.156Z,32.96
2022-08-26T11:59:51.192Z,33.01
2022-08-26T12:02:17.952Z,33.04
2022-08-26T12:04:44.140Z,33.99
2022-08-26T12:07:10.158Z,35.46
2022-08-26T12:09:36.159Z,36.19
2022-08-26T12:12:02.844Z,34.04
2022-08-26T12:14:29.863Z,32.81
2022-08-26T12:16:57.409Z,32.71
2022-08-26T12:19:23.386Z,32.07
2022-08-26T12:21:51.211Z,32.67
2022-08-26T12:24:18.447Z,33.06
2022-08-26T12:26:45.929Z,34.92
2022-08-26T12:29:19.994Z,34.07
2022-08-26T12:31:47.435Z,34.27
2022-08-26T12:34:17.608Z,34.78
2022-08-26T12:36:44.308Z,33.50
2022-08-26T12:39:10.566Z,33.77
2022-08-26T12:41:36.576Z,34.80
2022-08-26T12:44:03.354Z,34.79
2022-08-26T12:46:29.476Z,35.03
2022-08-26T12:48:55.466Z,32.69
2022-08-26T12:51:21.500Z,33.57
2022-08-26T12:53:48.788Z,34.80
2022-08-26T12:56:14.819Z,34.04
2022-08-26T12:58:40.866Z,34.25
2022-08-26T13:01:07.070Z,33.48
2022-08-26T13:03:33.922Z,34.74
2022-08-26T13:05:59.947Z,34.27
2022-08-26T13:08:25.998Z,33.58
2022-08-26T13:10:52.012Z,34.59
2022-08-26T13:13:18.006Z,33.46
2022-08-26T13:15:44.103Z,34.56
2022-08-26T13:18:10.878Z,33.46
2022-08-26T13:20:36.866Z,32.44
2022-08-26T13:23:02.894Z,31.29
2022-08-26T13:25:29.646Z,32.30
2022-08-26T13:27:55.633Z,32.48
2022-08-26T13:30:21.702Z,32.58
2022-08-26T13:32:48.477Z,32.46
2022-08-26T13:35:14.900Z,31.35
2022-08-26T13:37:41.818Z,32.46
2022-08-26T13:40:08.080Z,31.48
2022-08-26T13:42:34.406Z,31.95
2022-08-26T13:45:00.652Z,31.96
2022-08-26T13:47:27.757Z,32.79
2022-08-26T13:49:53.814Z,33.82
2022-08-26T13:52:30.383Z,32.75
2022-08-26T13:54:57.818Z,33.13
2022-08-26T13:57:23.861Z,33.48
2022-08-26T13:59:50.994Z,31.77
2022-08-26T14:02:17.007Z,32.50
2022-08-26T14:04:43.863Z,32.42
2022-08-26T14:07:09.851Z,32.52
2022-08-26T14:09:38.412Z,33.04
2022-08-26T14:12:04.718Z,34.47
2022-08-26T14:14:30.726Z,33.80
2022-08-26T14:17:00.150Z,34.88
2022-08-26T14:19:26.860Z,35.75
2022-08-26T14:21:53.180Z,36.70
2022-08-26T14:24:19.562Z,36.18
2022-08-26T14:26:45.897Z,37.02
2022-08-26T14:29:16.138Z,35.63
2022-08-26T14:31:43.268Z,35.27
2022-08-26T14:34:10.822Z,35.12
2022-08-26T14:36:37.017Z,35.46
2022-08-26T15:03:55.551Z,33.96
2022-08-26T15:06:21.576Z,34.09
2022-08-26T15:08:48.334Z,34.90
2022-08-26T15:11:14.379Z,35.47
2022-08-26T15:13:40.423Z,36.64
2022-08-26T15:16:06.456Z,36.70
2022-08-26T15:18:33.444Z,37.46
2022-08-26T15:20:59.443Z,36.45
2022-08-26T15:23:25.452Z,37.14
2022-08-26T15:25:53.999Z,37.02
2022-08-26T15:28:20.012Z,35.72
2022-08-26T15:30:49.015Z,35.94
2022-08-26T15:33:15.609Z,35.59
2022-08-26T15:35:43.120Z,36.05
2022-08-26T15:38:09.393Z,35.32
2022-08-26T15:40:35.654Z,36.81
2022-08-26T15:43:18.583Z,36.24
2022-08-26T15:45:48.409Z,33.98
2022-08-26T15:48:14.688Z,34.15
2022-08-26T15:50:42.365Z,35.06
2022-08-26T15:53:08.530Z,34.87
2022-08-26T15:55:34.524Z,35.64
2022-08-26T15:58:00.758Z,36.02
2022-08-26T16:00:27.691Z,36.00
2022-08-26T16:02:54.480Z,35.63
2022-08-26T16:05:20.677Z,36.51
2022-08-26T16:07:46.862Z,36.42
2022-08-26T16:10:12.843Z,36.33
2022-08-26T16:12:39.583Z,36.61
2022-08-26T16:15:05.659Z,35.59
2022-08-26T16:17:31.656Z,36.65
2022-08-26T16:19:57.643Z,36.68
2022-08-26T16:22:23.749Z,36.86
2022-08-26T16:24:49.813Z,36.52
2022-08-26T16:27:16.547Z,37.10
2022-08-26T16:29:42.638Z,37.21
2022-08-26T16:32:08.639Z,37.31
2022-08-26T16:34:34.577Z,36.97
2022-08-26T16:37:00.654Z,37.44
2022-08-26T16:39:26.869Z,37.58
2022-08-26T16:41:52.869Z,37.30
2022-08-26T16:44:18.929Z,37.41
2022-08-26T16:46:44.985Z,38.61
2022-08-26T16:49:11.744Z,38.89
2022-08-26T16:51:38.433Z,38.42
2022-08-26T16:54:04.591Z,39.76
2022-08-26T16:56:33.416Z,41.08
2022-08-26T16:59:00.512Z,40.63
2022-08-26T17:01:27.345Z,40.80
2022-08-26T17:03:53.394Z,41.03
2022-08-26T17:06:19.429Z,40.95
2022-08-26T17:08:46.181Z,41.39
2022-08-26T17:11:12.157Z,42.00
2022-08-26T17:13:38.194Z,42.96
2022-08-26T17:16:04.406Z,42.45
2022-08-26T17:18:30.502Z,42.79
2022-08-26T17:20:57.444Z,42.99
2022-08-26T17:23:23.911Z,43.17
2022-08-26T17:25:49.953Z,43.60
2022-08-26T17:28:15.954Z,43.52
2022-08-26T17:30:42.669Z,43.83
2022-08-26T17:33:10.823Z,44.57
2022-08-26T17:35:38.077Z,44.49
2022-08-26T17:38:05.089Z,44.04
2022-08-26T17:40:31.474Z,45.18
2022-08-26T17:42:57.776Z,45.42
2022-08-26T17:45:24.055Z,45.41
2022-08-26T17:47:51.634Z,45.47
2022-08-26T17:50:17.890Z,45.51
2022-08-26T17:52:44.105Z,45.65
2022-08-26T17:55:10.341Z,45.98
2022-08-26T17:57:40.515Z,46.05
2022-08-26T18:00:07.112Z,46.02
2022-08-26T20:12:10.229Z,54.01
2022-08-26T20:14:36.988Z,53.89
2022-08-26T20:17:03.029Z,54.07
2022-08-26T20:19:29.252Z,53.74
2022-08-26T20:21:55.248Z,53.64
2022-08-26T20:24:21.915Z,54.31
2022-08-26T20:26:48.040Z,54.10
2022-08-26T20:29:14.050Z,54.41
2022-08-26T20:31:40.872Z,54.95
2022-08-26T20:34:07.022Z,55.04
2022-08-26T20:36:33.021Z,54.87
2022-08-26T20:38:59.774Z,54.59
2022-08-26T20:41:25.925Z,55.07
2022-08-26T20:43:51.926Z,55.17
2022-08-26T20:46:21.907Z,55.01
2022-08-26T20:48:50.293Z,54.89
2022-08-26T20:51:16.291Z,54.70
2022-08-26T20:53:42.418Z,55.53
2022-08-26T20:56:09.341Z,55.36
2022-08-26T20:58:35.397Z,55.33
2022-08-26T21:01:06.734Z,55.40
2022-08-26T21:03:34.173Z,56.12
2022-08-26T21:06:00.184Z,56.32
2022-08-26T21:08:26.226Z,56.51
2022-08-26T21:10:52.610Z,56.78
2022-08-26T21:13:18.735Z,56.86
2022-08-26T21:15:44.738Z,56.56
2022-08-26T21:18:10.864Z,56.47
2022-08-26T21:20:37.683Z,57.05
2022-08-26T21:23:03.706Z,56.92
2022-08-26T21:25:29.755Z,56.79
2022-08-26T21:27:55.793Z,56.40
2022-08-26T21:30:21.805Z,57.26
2022-08-26T21:32:48.717Z,58.03
2022-08-26T21:35:14.726Z,57.42
2022-08-26T21:37:40.699Z,57.38
2022-08-26T21:40:07.677Z,57.42
2022-08-26T21:42:33.754Z,57.22
2022-08-26T21:44:59.757Z,56.78
2022-08-26T21:47:25.904Z,57.80
2022-08-26T21:49:51.941Z,57.26
2022-08-26T21:52:17.947Z,57.48
2022-08-26T21:54:49.607Z,57.26
2022-08-26T21:57:15.932Z,57.52
2022-08-26T21:59:41.919Z,57.38
2022-08-26T22:02:08.008Z,57.59
2022-08-26T22:04:34.806Z,57.40
2022-08-26T22:07:00.845Z,57.76
2022-08-26T22:09:26.895Z,57.68
2022-08-26T22:11:52.923Z,57.76
2022-08-26T22:14:19.622Z,57.85
2022-08-26T22:16:50.685Z,58.22
2022-08-26T22:19:17.526Z,58.13
2022-08-26T22:21:43.537Z,58.18
2022-08-26T22:24:10.540Z,58.08
2022-08-26T22:26:36.573Z,58.29
2022-08-26T22:29:02.563Z,58.61
2022-08-26T22:31:29.445Z,58.39
2022-08-26T22:34:04.200Z,58.86
2022-08-26T22:36:30.264Z,58.84
2022-08-26T22:38:56.255Z,58.68
2022-08-26T22:41:23.015Z,58.93
2022-08-26T22:43:49.115Z,59.13
2022-08-26T22:46:15.156Z,59.38
2022-08-26T22:48:41.599Z,59.12
2022-08-26T22:51:07.948Z,59.36
2022-08-26T22:53:35.974Z,59.11
2022-08-26T22:56:08.789Z,59.30
2022-08-26T22:58:35.173Z,60.06
2022-08-26T23:03:41.916Z,59.68
